Time;durP1;ratioP1;P1;durP2;ratioP2;P2;SDS_P1;SDS_P2;PMS_P1;PMS_P2;Temp;Humidity;BMP_temperature;BMP_pressure;BME280_temperature;BME280_humidity;BME280_pressure;Samples;Min_cycle;Max_cycle;Signal;HPM_P1;HPM_P2
2021/10/19 00:01:58;;;;;;;23.77;16.25;;;;;;;;;;5020760;28;20234;-69
2021/10/19 00:04:26;;;;;;;23.85;15.55;;;;;;;;;;5017268;28;20197;-69
2021/10/19 00:06:51;;;;;;;23.52;14.88;;;;;;;;;;5023037;28;20570;-69
2021/10/19 00:09:16;;;;;;;24.52;14.80;;;;;;;;;;5013469;28;20186;-69
2021/10/19 00:11:42;;;;;;;22.15;15.35;;;;;;;;;;5026730;28;20186;-70
2021/10/19 00:14:08;;;;;;;26.33;16.15;;;;;;;;;;5011489;28;20419;-69
2021/10/19 00:16:33;;;;;;;25.65;16.73;;;;;;;;;;5025478;28;20178;-69
2021/10/19 00:18:59;;;;;;;20.25;14.35;;;;;;;;;;5022676;28;20193;-69
2021/10/19 00:21:24;;;;;;;23.90;15.43;;;;;;;;;;5014174;28;20186;-69
2021/10/19 00:23:51;;;;;;;26.38;16.02;;;;;;;;;;5020369;28;20191;-69
2021/10/19 00:26:16;;;;;;;23.05;15.73;;;;;;;;;;5017607;28;20210;-69
2021/10/19 00:28:41;;;;;;;24.92;16.45;;;;;;;;;;5024257;28;20197;-69
2021/10/19 00:31:07;;;;;;;22.30;14.95;;;;;;;;;;5013483;28;20194;-69
2021/10/19 00:33:32;;;;;;;24.38;15.07;;;;;;;;;;5024653;28;20190;-70
2021/10/19 00:35:58;;;;;;;21.20;15.82;;;;;;;;;;5010160;28;20200;-70
2021/10/19 00:38:23;;;;;;;25.70;15.27;;;;;;;;;;5023997;28;20194;-69
2021/10/19 00:40:48;;;;;;;23.48;14.98;;;;;;;;;;5017966;28;20198;-69
2021/10/19 00:43:14;;;;;;;22.17;15.48;;;;;;;;;;5022443;28;20190;-70
2021/10/19 00:45:39;;;;;;;22.45;14.82;;;;;;;;;;5018562;28;20186;-69
2021/10/19 00:48:06;;;;;;;21.60;15.63;;;;;;;;;;5022988;28;20217;-70
2021/10/19 00:50:32;;;;;;;28.08;16.30;;;;;;;;;;5022160;28;20540;-71
2021/10/19 00:52:58;;;;;;;21.70;15.15;;;;;;;;;;5016461;28;20641;-70
2021/10/19 00:55:24;;;;;;;25.17;16.38;;;;;;;;;;5020151;28;20189;-69
2021/10/19 00:57:50;;;;;;;27.38;16.55;;;;;;;;;;5016154;28;20204;-68
2021/10/19 01:00:16;;;;;;;26.80;17.15;;;;;;;;;;5022489;28;20273;-68
2021/10/19 01:02:43;;;;;;;23.40;15.95;;;;;;;;;;5012804;28;20203;-69
2021/10/19 01:05:10;;;;;;;22.88;15.52;;;;;;;;;;5025265;28;20228;-69
2021/10/19 01:07:35;;;;;;;25.35;14.93;;;;;;;;;;5011359;28;20209;-70
2021/10/19 01:10:03;;;;;;;22.42;15.52;;;;;;;;;;5022894;28;20194;-69
2021/10/19 01:12:28;;;;;;;22.00;14.73;;;;;;;;;;5015129;28;20247;-68
2021/10/19 01:14:54;;;;;;;23.80;14.82;;;;;;;;;;5024063;28;20281;-68
2021/10/19 01:17:19;;;;;;;24.45;15.27;;;;;;;;;;5019211;28;20178;-68
2021/10/19 01:19:49;;;;;;;22.65;15.13;;;;;;;;;;5020252;28;20285;-69
2021/10/19 01:22:15;;;;;;;19.67;15.52;;;;;;;;;;5021722;28;20222;-68
2021/10/19 01:24:40;;;;;;;21.65;14.68;;;;;;;;;;5013798;28;20213;-70
2021/10/19 01:27:05;;;;;;;24.05;15.43;;;;;;;;;;5021909;28;20206;-68
2021/10/19 01:29:31;;;;;;;23.77;15.35;;;;;;;;;;5016134;28;20193;-68
2021/10/19 01:31:57;;;;;;;22.05;15.18;;;;;;;;;;5020363;28;20185;-69
2021/10/19 01:34:22;;;;;;;24.05;16.05;;;;;;;;;;5015992;28;20492;-69
2021/10/19 01:36:49;;;;;;;26.48;16.20;;;;;;;;;;5025449;28;20190;-69
2021/10/19 01:39:14;;;;;;;28.23;15.40;;;;;;;;;;5013497;28;20217;-69
2021/10/19 01:41:42;;;;;;;24.38;15.98;;;;;;;;;;5019092;28;20293;-69
2021/10/19 01:44:08;;;;;;;24.30;16.40;;;;;;;;;;5016646;28;20487;-69
2021/10/19 01:46:33;;;;;;;23.17;15.48;;;;;;;;;;5020867;28;20214;-69
2021/10/19 01:48:59;;;;;;;22.73;15.00;;;;;;;;;;5017009;28;21547;-69
2021/10/19 01:51:25;;;;;;;25.00;15.27;;;;;;;;;;5022525;28;20178;-69
2021/10/19 01:53:50;;;;;;;22.63;15.80;;;;;;;;;;5021126;28;20193;-69
2021/10/19 01:56:16;;;;;;;22.48;15.98;;;;;;;;;;5020829;28;20236;-69
2021/10/19 01:58:41;;;;;;;27.67;16.13;;;;;;;;;;5022323;28;20202;-69
2021/10/19 02:01:07;;;;;;;23.33;15.65;;;;;;;;;;5013839;28;20560;-69
2021/10/19 02:03:32;;;;;;;26.58;16.35;;;;;;;;;;5020762;28;20500;-70
2021/10/19 02:05:58;;;;;;;22.58;15.82;;;;;;;;;;5012867;28;20377;-71
2021/10/19 02:08:23;;;;;;;28.52;17.00;;;;;;;;;;5023683;28;20201;-69
2021/10/19 02:10:49;;;;;;;27.35;15.82;;;;;;;;;;5014958;28;20201;-70
2021/10/19 02:13:14;;;;;;;23.25;16.50;;;;;;;;;;5021769;28;20190;-70
2021/10/19 02:15:41;;;;;;;25.23;15.40;;;;;;;;;;5015364;28;20182;-69
2021/10/19 02:18:07;;;;;;;23.63;15.15;;;;;;;;;;5024691;28;20316;-70
2021/10/19 02:20:34;;;;;;;26.67;16.17;;;;;;;;;;5015566;28;20208;-69
2021/10/19 02:22:59;;;;;;;27.45;16.92;;;;;;;;;;5021912;28;20247;-71
2021/10/19 02:25:25;;;;;;;21.67;15.90;;;;;;;;;;5022917;28;20189;-70
2021/10/19 02:27:51;;;;;;;25.08;17.27;;;;;;;;;;5014114;28;20213;-69
2021/10/19 02:30:17;;;;;;;25.25;16.67;;;;;;;;;;5024020;28;20182;-69
2021/10/19 02:32:43;;;;;;;24.35;16.60;;;;;;;;;;5016681;28;20657;-70
2021/10/19 02:35:13;;;;;;;21.13;15.35;;;;;;;;;;5022870;28;20198;-71
2021/10/19 02:37:40;;;;;;;25.52;16.02;;;;;;;;;;5013668;28;20187;-70
2021/10/19 02:40:08;;;;;;;23.45;15.65;;;;;;;;;;5021772;28;20190;-70
2021/10/19 02:42:34;;;;;;;26.00;15.90;;;;;;;;;;5013530;28;20305;-70
2021/10/19 02:44:59;;;;;;;23.63;16.20;;;;;;;;;;5019844;28;20265;-70
2021/10/19 02:47:25;;;;;;;26.45;16.00;;;;;;;;;;5013558;28;20215;-71
2021/10/19 02:49:50;;;;;;;24.52;16.00;;;;;;;;;;5020821;28;20212;-70
2021/10/19 02:52:16;;;;;;;21.85;15.63;;;;;;;;;;5018253;28;20193;-71
2021/10/19 02:54:41;;;;;;;22.42;15.43;;;;;;;;;;5020254;28;20645;-70
2021/10/19 02:57:08;;;;;;;23.17;15.25;;;;;;;;;;5026080;28;20263;-70
2021/10/19 02:59:33;;;;;;;25.02;16.55;;;;;;;;;;5022220;28;20229;-70
2021/10/19 03:01:59;;;;;;;25.67;15.55;;;;;;;;;;5023043;28;20308;-70
2021/10/19 03:04:24;;;;;;;24.08;16.52;;;;;;;;;;5017683;28;20675;-71
2021/10/19 03:06:49;;;;;;;23.85;15.63;;;;;;;;;;5022807;28;20218;-70
2021/10/19 03:09:14;;;;;;;22.48;15.68;;;;;;;;;;5019246;28;20554;-70
2021/10/19 03:11:40;;;;;;;27.73;15.55;;;;;;;;;;5027691;28;20182;-67
2021/10/19 03:14:05;;;;;;;22.17;15.32;;;;;;;;;;5018482;28;20247;-70
2021/10/19 03:16:30;;;;;;;24.65;14.90;;;;;;;;;;5024121;28;20265;-70
2021/10/19 03:18:56;;;;;;;22.38;15.38;;;;;;;;;;5016536;28;20228;-70
2021/10/19 03:21:21;;;;;;;19.85;14.65;;;;;;;;;;5026208;28;20669;-70
2021/10/19 03:23:47;;;;;;;23.05;15.43;;;;;;;;;;5018653;28;20812;-70
2021/10/19 03:26:16;;;;;;;24.20;15.25;;;;;;;;;;5026296;28;20202;-69
2021/10/19 03:28:41;;;;;;;22.65;16.15;;;;;;;;;;5022136;28;20252;-69
2021/10/19 03:31:06;;;;;;;25.92;15.50;;;;;;;;;;5023725;28;20189;-68
2021/10/19 03:33:32;;;;;;;26.23;16.52;;;;;;;;;;5020450;28;20212;-69
2021/10/19 03:35:57;;;;;;;22.58;14.85;;;;;;;;;;5016194;28;20194;-68
2021/10/19 03:38:22;;;;;;;23.80;15.23;;;;;;;;;;5025048;28;20178;-68
2021/10/19 03:40:48;;;;;;;23.25;16.25;;;;;;;;;;5019267;28;20186;-68
2021/10/19 03:43:13;;;;;;;23.85;15.68;;;;;;;;;;5023486;28;20255;-69
2021/10/19 03:45:39;;;;;;;23.92;15.73;;;;;;;;;;5017776;28;20194;-68
2021/10/19 03:48:04;;;;;;;25.27;16.33;;;;;;;;;;5024683;28;20240;-69
2021/10/19 03:50:29;;;;;;;23.55;15.73;;;;;;;;;;5019069;28;20192;-70
2021/10/19 03:52:57;;;;;;;20.90;15.68;;;;;;;;;;5025155;28;20634;-69
2021/10/19 03:55:23;;;;;;;24.40;15.57;;;;;;;;;;5011227;28;21436;-69
2021/10/19 03:57:48;;;;;;;28.88;16.50;;;;;;;;;;5024864;28;20202;-69
2021/10/19 04:00:14;;;;;;;23.05;15.95;;;;;;;;;;5021312;28;20541;-69
2021/10/19 04:02:39;;;;;;;24.15;16.23;;;;;;;;;;5017692;28;20269;-69
2021/10/19 04:05:05;;;;;;;23.23;16.00;;;;;;;;;;5024312;28;20183;-69
2021/10/19 04:07:30;;;;;;;24.67;15.85;;;;;;;;;;5013668;28;20206;-69
2021/10/19 04:09:56;;;;;;;23.67;15.35;;;;;;;;;;5023841;28;20654;-69
2021/10/19 04:12:21;;;;;;;20.55;15.45;;;;;;;;;;5019364;28;20232;-69
2021/10/19 04:14:46;;;;;;;26.85;15.60;;;;;;;;;;5025572;28;20190;-69
2021/10/19 04:17:12;;;;;;;23.08;15.32;;;;;;;;;;5014315;28;20521;-70
2021/10/19 04:19:37;;;;;;;22.88;15.48;;;;;;;;;;5028479;28;20194;-69
2021/10/19 04:22:02;;;;;;;25.38;15.50;;;;;;;;;;5014402;28;20198;-69
2021/10/19 04:24:28;;;;;;;26.33;15.10;;;;;;;;;;5021859;28;20198;-69
2021/10/19 04:26:53;;;;;;;20.02;13.27;;;;;;;;;;5016580;28;20579;-70
2021/10/19 04:29:18;;;;;;;24.23;15.07;;;;;;;;;;5022294;28;20257;-69
2021/10/19 04:31:44;;;;;;;21.80;15.80;;;;;;;;;;5021580;28;21636;-69
2021/10/19 04:34:09;;;;;;;23.08;14.23;;;;;;;;;;5013093;28;20201;-69
2021/10/19 04:36:35;;;;;;;23.42;14.93;;;;;;;;;;5027111;28;20281;-69
2021/10/19 04:39:00;;;;;;;21.77;14.30;;;;;;;;;;5014681;28;20178;-69
2021/10/19 04:41:28;;;;;;;22.85;15.68;;;;;;;;;;5025008;28;20348;-69
2021/10/19 04:43:53;;;;;;;24.63;15.77;;;;;;;;;;5014880;28;20209;-69
2021/10/19 04:46:18;;;;;;;22.83;14.65;;;;;;;;;;5026930;28;20717;-69
2021/10/19 04:48:44;;;;;;;22.88;15.10;;;;;;;;;;5017027;28;20692;-70
2021/10/19 04:51:10;;;;;;;24.73;15.95;;;;;;;;;;5023191;28;20546;-71
2021/10/19 04:53:36;;;;;;;21.35;14.65;;;;;;;;;;5016558;28;20862;-70
2021/10/19 04:56:03;;;;;;;22.48;15.00;;;;;;;;;;5023834;28;20252;-70
2021/10/19 04:58:28;;;;;;;24.08;15.35;;;;;;;;;;5013758;28;20309;-69
2021/10/19 05:00:53;;;;;;;22.15;15.18;;;;;;;;;;5021374;28;20320;-69
2021/10/19 05:03:22;;;;;;;20.92;14.98;;;;;;;;;;5020601;28;20251;-69
2021/10/19 05:05:49;;;;;;;24.05;15.63;;;;;;;;;;5015324;28;20200;-70
2021/10/19 05:08:14;;;;;;;22.50;15.27;;;;;;;;;;5024875;28;20550;-70
2021/10/19 05:10:39;;;;;;;20.48;14.48;;;;;;;;;;5011696;28;20185;-69
2021/10/19 05:13:05;;;;;;;21.70;14.85;;;;;;;;;;5024605;28;20183;-70
2021/10/19 05:15:30;;;;;;;21.30;15.57;;;;;;;;;;5015278;28;20185;-69
2021/10/19 05:17:56;;;;;;;21.65;15.55;;;;;;;;;;5021432;28;20202;-69
2021/10/19 05:20:22;;;;;;;21.38;15.60;;;;;;;;;;5012737;28;20260;-70
2021/10/19 05:22:48;;;;;;;20.60;14.07;;;;;;;;;;4327235;28;10000718;-69
2021/10/19 05:25:14;;;;;;;20.15;15.40;;;;;;;;;;5009803;28;20748;-70
2021/10/19 05:27:39;;;;;;;24.63;16.02;;;;;;;;;;5018953;28;20198;-69
2021/10/19 05:30:06;;;;;;;23.13;16.25;;;;;;;;;;5010975;28;20200;-69
2021/10/19 05:32:31;;;;;;;22.48;17.13;;;;;;;;;;5017054;28;20178;-69
2021/10/19 05:34:57;;;;;;;24.17;17.33;;;;;;;;;;5017950;28;20656;-69
2021/10/19 05:37:22;;;;;;;25.55;16.50;;;;;;;;;;5009632;28;20189;-69
2021/10/19 05:39:47;;;;;;;24.02;17.40;;;;;;;;;;5017412;28;20217;-68
2021/10/19 05:42:13;;;;;;;24.35;18.20;;;;;;;;;;5011551;28;22111;-68
2021/10/19 05:44:40;;;;;;;27.73;18.70;;;;;;;;;;5020154;28;20267;-69
2021/10/19 05:47:05;;;;;;;24.85;17.70;;;;;;;;;;5011617;28;20553;-68
2021/10/19 05:49:31;;;;;;;20.17;15.80;;;;;;;;;;5019757;28;20186;-70
2021/10/19 05:51:56;;;;;;;25.60;17.80;;;;;;;;;;5011158;28;20595;-69
2021/10/19 05:54:23;;;;;;;23.40;17.58;;;;;;;;;;5018315;28;20178;-69
2021/10/19 05:56:49;;;;;;;29.30;18.38;;;;;;;;;;5012385;28;20711;-69
2021/10/19 05:59:15;;;;;;;24.65;18.83;;;;;;;;;;5016522;28;20192;-69
2021/10/19 06:01:40;;;;;;;25.20;18.67;;;;;;;;;;5011010;28;20241;-69
2021/10/19 06:04:05;;;;;;;29.25;20.02;;;;;;;;;;5017091;28;20197;-69
2021/10/19 06:06:30;;;;;;;28.30;19.55;;;;;;;;;;5018431;28;20210;-70
2021/10/19 06:08:56;;;;;;;25.50;18.33;;;;;;;;;;5011497;28;20197;-70
2021/10/19 06:11:21;;;;;;;27.70;19.33;;;;;;;;;;5019348;28;20281;-68
2021/10/19 06:13:47;;;;;;;31.50;20.33;;;;;;;;;;5012645;28;20251;-68
2021/10/19 06:16:12;;;;;;;28.85;20.52;;;;;;;;;;5018706;28;20578;-69
2021/10/19 06:18:38;;;;;;;28.45;20.38;;;;;;;;;;5012394;28;20804;-69
2021/10/19 06:21:03;;;;;;;27.63;20.73;;;;;;;;;;5017974;28;20284;-69
2021/10/19 06:23:29;;;;;;;27.35;20.50;;;;;;;;;;5010474;28;20662;-69
2021/10/19 06:25:54;;;;;;;26.77;19.77;;;;;;;;;;5015416;28;20204;-70
2021/10/19 06:28:20;;;;;;;26.05;19.73;;;;;;;;;;5011890;28;20210;-69
2021/10/19 06:30:45;;;;;;;24.88;19.40;;;;;;;;;;5023052;28;20202;-69
2021/10/19 06:33:11;;;;;;;27.02;19.90;;;;;;;;;;5014121;28;20212;-69
2021/10/19 06:35:36;;;;;;;25.48;19.70;;;;;;;;;;5020843;28;20187;-70
2021/10/19 06:38:02;;;;;;;24.55;18.98;;;;;;;;;;5020225;28;20174;-69
2021/10/19 06:40:27;;;;;;;24.08;19.05;;;;;;;;;;5016385;28;20273;-68
2021/10/19 06:42:53;;;;;;;22.70;18.58;;;;;;;;;;5020007;28;20530;-68
2021/10/19 06:45:18;;;;;;;25.40;17.73;;;;;;;;;;5012020;28;20280;-70
2021/10/19 06:47:43;;;;;;;23.30;18.98;;;;;;;;;;5023685;28;20205;-69
2021/10/19 06:50:10;;;;;;;24.98;18.10;;;;;;;;;;5013822;28;20190;-69
2021/10/19 06:52:36;;;;;;;21.75;16.92;;;;;;;;;;5024680;28;20185;-69
2021/10/19 06:55:06;;;;;;;21.55;16.48;;;;;;;;;;5011507;28;20201;-69
2021/10/19 06:57:41;;;;;;;20.27;16.08;;;;;;;;;;5021236;28;20207;-68
2021/10/19 07:00:11;;;;;;;21.13;15.93;;;;;;;;;;5012887;28;20193;-70
2021/10/19 07:02:37;;;;;;;21.48;17.02;;;;;;;;;;5019464;28;20670;-68
2021/10/19 07:05:03;;;;;;;18.70;15.25;;;;;;;;;;5011718;28;20546;-69
2021/10/19 07:07:29;;;;;;;20.88;16.65;;;;;;;;;;5020100;28;20217;-70
2021/10/19 07:09:54;;;;;;;19.20;17.02;;;;;;;;;;5017411;28;20186;-68
2021/10/19 07:12:20;;;;;;;21.95;17.00;;;;;;;;;;5011275;28;20564;-68
2021/10/19 07:14:47;;;;;;;20.50;16.40;;;;;;;;;;5019598;28;20210;-68
2021/10/19 07:17:12;;;;;;;21.75;17.55;;;;;;;;;;5010183;28;20296;-69
2021/10/19 07:19:39;;;;;;;21.60;17.83;;;;;;;;;;5019314;28;20255;-68
2021/10/19 07:22:04;;;;;;;22.83;17.77;;;;;;;;;;5007782;28;20269;-68
2021/10/19 07:24:30;;;;;;;21.02;16.52;;;;;;;;;;5016696;28;20278;-68
2021/10/19 07:26:55;;;;;;;20.33;15.93;;;;;;;;;;5013423;28;20199;-69
2021/10/19 07:29:20;;;;;;;21.25;17.33;;;;;;;;;;5022884;28;21331;-69
2021/10/19 07:31:46;;;;;;;21.08;17.45;;;;;;;;;;5014406;28;20197;-68
2021/10/19 07:34:11;;;;;;;20.63;17.10;;;;;;;;;;5024341;28;20190;-68
2021/10/19 07:36:37;;;;;;;19.50;15.65;;;;;;;;;;5018159;28;20248;-68
2021/10/19 07:39:02;;;;;;;19.23;16.63;;;;;;;;;;5025696;28;20182;-68
2021/10/19 07:41:28;;;;;;;18.67;15.77;;;;;;;;;;5026023;28;20198;-69
2021/10/19 07:43:53;;;;;;;20.85;14.85;;;;;;;;;;5016886;28;20276;-70
2021/10/19 07:46:19;;;;;;;17.80;15.23;;;;;;;;;;5024148;28;20190;-68
2021/10/19 07:48:44;;;;;;;19.10;15.02;;;;;;;;;;5016374;28;20186;-69
2021/10/19 07:51:09;;;;;;;17.73;15.15;;;;;;;;;;5023136;28;20562;-68
2021/10/19 07:53:34;;;;;;;18.83;15.98;;;;;;;;;;5013618;28;20275;-68
2021/10/19 07:56:00;;;;;;;18.52;15.45;;;;;;;;;;5018552;28;20228;-69
2021/10/19 07:58:26;;;;;;;20.63;15.65;;;;;;;;;;5015314;28;20178;-69
2021/10/19 08:00:52;;;;;;;16.75;14.48;;;;;;;;;;5020272;28;20245;-68
2021/10/19 08:03:17;;;;;;;19.63;15.93;;;;;;;;;;5011275;28;20186;-68
2021/10/19 08:05:44;;;;;;;19.52;15.82;;;;;;;;;;5023985;28;20263;-69
2021/10/19 08:08:12;;;;;;;17.45;14.57;;;;;;;;;;5023573;28;20858;-69
2021/10/19 08:10:39;;;;;;;21.73;16.70;;;;;;;;;;5020362;28;20192;-69
2021/10/19 08:13:04;;;;;;;18.40;15.60;;;;;;;;;;5025581;28;20193;-68
2021/10/19 08:15:30;;;;;;;18.70;15.15;;;;;;;;;;5014858;28;20701;-68
2021/10/19 08:17:55;;;;;;;16.48;14.13;;;;;;;;;;5018832;28;20273;-70
2021/10/19 08:20:21;;;;;;;14.98;13.13;;;;;;;;;;5015611;28;20190;-69
2021/10/19 08:22:47;;;;;;;14.13;12.38;;;;;;;;;;5026352;28;20656;-70
2021/10/19 08:25:13;;;;;;;15.23;13.57;;;;;;;;;;5016519;28;20597;-69
2021/10/19 08:27:41;;;;;;;13.50;11.50;;;;;;;;;;5023444;28;20210;-69
2021/10/19 08:30:09;;;;;;;14.20;12.55;;;;;;;;;;5016490;28;20183;-69
2021/10/19 08:32:34;;;;;;;14.38;12.05;;;;;;;;;;5025353;28;20198;-69
2021/10/19 08:35:00;;;;;;;15.10;12.43;;;;;;;;;;5015622;28;20201;-69
2021/10/19 08:37:25;;;;;;;15.27;13.38;;;;;;;;;;5023395;28;20235;-69
2021/10/19 08:39:51;;;;;;;14.88;12.77;;;;;;;;;;5017338;28;20525;-69
2021/10/19 08:42:16;;;;;;;13.68;12.23;;;;;;;;;;5025135;28;20407;-69
2021/10/19 08:44:41;;;;;;;15.48;12.18;;;;;;;;;;5021727;28;20285;-70
2021/10/19 08:47:07;;;;;;;13.75;12.25;;;;;;;;;;5016127;28;20214;-69
2021/10/19 08:49:33;;;;;;;16.83;12.63;;;;;;;;;;5022713;28;20238;-68
2021/10/19 08:51:59;;;;;;;13.75;11.48;;;;;;;;;;5013733;28;20603;-68
2021/10/19 08:54:24;;;;;;;13.60;12.13;;;;;;;;;;5020469;28;20753;-69
2021/10/19 08:56:49;;;;;;;13.18;11.30;;;;;;;;;;5013921;28;20232;-69
2021/10/19 08:59:21;;;;;;;12.40;11.10;;;;;;;;;;5021825;28;20497;-68
2021/10/19 09:01:47;;;;;;;14.48;12.10;;;;;;;;;;5017857;28;20313;-69
2021/10/19 09:04:12;;;;;;;12.27;11.00;;;;;;;;;;5022499;28;20722;-70
2021/10/19 09:06:40;;;;;;;12.73;11.30;;;;;;;;;;5012334;28;20207;-71
2021/10/19 09:09:12;;;;;;;13.43;10.85;;;;;;;;;;5022568;28;20194;-69
2021/10/19 09:11:43;;;;;;;13.38;11.98;;;;;;;;;;5014661;28;20554;-69
2021/10/19 09:14:12;;;;;;;13.20;11.50;;;;;;;;;;5019504;28;21083;-70
2021/10/19 09:16:44;;;;;;;12.18;10.88;;;;;;;;;;5017475;28;20197;-70
2021/10/19 09:19:11;;;;;;;13.40;11.07;;;;;;;;;;5022945;28;20222;-70
2021/10/19 09:21:41;;;;;;;11.30;10.18;;;;;;;;;;5020477;28;20218;-69
2021/10/19 09:24:29;;;;;;;14.48;10.75;;;;;;;;;;5014335;28;20225;-69
2021/10/19 09:27:06;;;;;;;13.63;10.82;;;;;;;;;;4322657;28;10000744;-70
2021/10/19 09:29:50;;;;;;;12.10;10.82;;;;;;;;;;5018715;28;20185;-70
2021/10/19 09:32:18;;;;;;;12.95;10.05;;;;;;;;;;5015604;28;20201;-68
2021/10/19 09:34:45;;;;;;;12.05;10.02;;;;;;;;;;5016741;28;20519;-69
2021/10/19 09:37:17;;;;;;;10.60;9.32;;;;;;;;;;5016681;28;20650;-70
2021/10/19 09:39:48;;;;;;;10.55;9.20;;;;;;;;;;5012155;28;20611;-68
2021/10/19 09:42:22;;;;;;;10.98;9.23;;;;;;;;;;5020820;28;20186;-69
2021/10/19 09:44:58;;;;;;;12.80;10.35;;;;;;;;;;5007678;28;20198;-69
2021/10/19 09:47:37;;;;;;;10.63;9.63;;;;;;;;;;5014793;28;20232;-69
2021/10/19 09:50:07;;;;;;;11.25;10.10;;;;;;;;;;5009711;28;20186;-70
2021/10/19 09:52:37;;;;;;;10.77;9.73;;;;;;;;;;5018975;28;20190;-70
2021/10/19 09:55:05;;;;;;;10.98;9.60;;;;;;;;;;5011230;28;20233;-70
2021/10/19 09:57:31;;;;;;;11.20;10.10;;;;;;;;;;5015742;28;20312;-70
2021/10/19 09:59:57;;;;;;;11.13;9.80;;;;;;;;;;5012433;28;20639;-69
2021/10/19 10:02:22;;;;;;;11.55;10.13;;;;;;;;;;5017902;28;21260;-69
2021/10/19 10:04:48;;;;;;;10.80;9.70;;;;;;;;;;5009620;28;20193;-71
2021/10/19 10:07:14;;;;;;;10.63;9.50;;;;;;;;;;5020352;28;20218;-70
2021/10/19 10:09:41;;;;;;;10.70;9.63;;;;;;;;;;5009525;28;20197;-69
2021/10/19 10:12:07;;;;;;;11.07;9.57;;;;;;;;;;5020251;28;20232;-69
2021/10/19 10:14:47;;;;;;;10.07;9.07;;;;;;;;;;5019892;28;20178;-69
2021/10/19 10:17:13;;;;;;;10.27;9.27;;;;;;;;;;5021328;28;20181;-69
2021/10/19 10:19:40;;;;;;;10.57;9.07;;;;;;;;;;5021516;28;20228;-69
2021/10/19 10:22:22;;;;;;;10.27;9.18;;;;;;;;;;5014487;28;20190;-69
2021/10/19 10:24:48;;;;;;;10.93;9.82;;;;;;;;;;5022112;28;20667;-69
2021/10/19 10:27:16;;;;;;;14.82;10.65;;;;;;;;;;5015109;28;20206;-69
2021/10/19 10:29:44;;;;;;;9.98;8.85;;;;;;;;;;5021983;28;20572;-69
2021/10/19 10:32:35;;;;;;;10.82;9.80;;;;;;;;;;5014017;28;20263;-68
2021/10/19 10:35:01;;;;;;;10.50;9.50;;;;;;;;;;5021194;28;20289;-69
2021/10/19 10:37:57;;;;;;;11.48;10.38;;;;;;;;;;5013674;28;20182;-68
2021/10/19 10:40:25;;;;;;;11.57;10.48;;;;;;;;;;5018631;28;20198;-68
2021/10/19 10:42:51;;;;;;;10.75;9.65;;;;;;;;;;5013764;28;20289;-69
2021/10/19 10:45:17;;;;;;;10.50;9.55;;;;;;;;;;5022031;28;20276;-68
2021/10/19 10:48:04;;;;;;;11.88;10.80;;;;;;;;;;5014941;28;20213;-70
2021/10/19 10:50:35;;;;;;;9.60;8.75;;;;;;;;;;5019163;28;20193;-68
2021/10/19 10:53:08;;;;;;;11.43;10.38;;;;;;;;;;5007169;28;20231;-68
2021/10/19 10:55:39;;;;;;;12.02;10.82;;;;;;;;;;5016499;28;20222;-69
2021/10/19 10:58:05;;;;;;;11.40;10.30;;;;;;;;;;5009515;28;20220;-68
2021/10/19 11:00:31;;;;;;;11.27;10.27;;;;;;;;;;5017700;28;20197;-70
2021/10/19 11:03:10;;;;;;;10.48;9.48;;;;;;;;;;5010314;28;20883;-68
2021/10/19 11:05:37;;;;;;;11.02;9.98;;;;;;;;;;5020916;28;20637;-68
2021/10/19 11:08:03;;;;;;;11.13;10.02;;;;;;;;;;5008712;28;20401;-69
2021/10/19 11:10:29;;;;;;;11.27;10.25;;;;;;;;;;5020128;28;20186;-68
2021/10/19 11:13:00;;;;;;;12.10;10.73;;;;;;;;;;5012766;28;20672;-69
2021/10/19 11:15:25;;;;;;;11.02;10.02;;;;;;;;;;5022755;28;20320;-68
2021/10/19 11:17:52;;;;;;;10.85;9.85;;;;;;;;;;5026968;28;20190;-69
2021/10/19 11:20:20;;;;;;;11.20;10.00;;;;;;;;;;5017830;28;20268;-68
2021/10/19 11:22:45;;;;;;;11.38;10.23;;;;;;;;;;5029303;28;20212;-68
2021/10/19 11:25:12;;;;;;;11.13;10.13;;;;;;;;;;5018612;28;20193;-68
2021/10/19 11:27:37;;;;;;;11.75;10.00;;;;;;;;;;5025336;28;20209;-68
2021/10/19 11:30:08;;;;;;;10.70;9.80;;;;;;;;;;5018664;28;20202;-68
2021/10/19 11:32:38;;;;;;;11.55;10.45;;;;;;;;;;5023930;28;20190;-68
2021/10/19 11:35:05;;;;;;;11.35;10.15;;;;;;;;;;5011969;28;20534;-68
2021/10/19 11:37:31;;;;;;;10.80;9.80;;;;;;;;;;5024234;28;20265;-68
2021/10/19 11:40:06;;;;;;;10.55;9.65;;;;;;;;;;5018104;28;20276;-68
2021/10/19 11:42:52;;;;;;;10.27;9.38;;;;;;;;;;5023708;28;20225;-68
2021/10/19 11:45:22;;;;;;;10.48;9.40;;;;;;;;;;5015954;28;20213;-68
2021/10/19 11:47:57;;;;;;;10.02;9.13;;;;;;;;;;5026679;28;20591;-68
2021/10/19 11:50:25;;;;;;;8.98;8.18;;;;;;;;;;5017927;28;20189;-69
2021/10/19 11:52:52;;;;;;;9.40;8.48;;;;;;;;;;5024869;28;20190;-67
2021/10/19 11:55:18;;;;;;;10.73;9.10;;;;;;;;;;5012427;28;20182;-68
2021/10/19 11:57:50;;;;;;;8.57;7.82;;;;;;;;;;5026612;28;20217;-69
2021/10/19 12:00:15;;;;;;;8.45;7.65;;;;;;;;;;5017215;28;20548;-69
2021/10/19 12:02:58;;;;;;;8.82;7.93;;;;;;;;;;5022641;28;20182;-69
2021/10/19 12:05:25;;;;;;;9.15;8.25;;;;;;;;;;5019222;28;20198;-69
2021/10/19 12:07:52;;;;;;;8.90;8.00;;;;;;;;;;5026762;28;20202;-69
2021/10/19 12:10:27;;;;;;;8.32;7.43;;;;;;;;;;5023908;28;20181;-69
2021/10/19 12:12:58;;;;;;;9.18;8.27;;;;;;;;;;5018351;28;20197;-69
2021/10/19 12:15:26;;;;;;;8.45;7.43;;;;;;;;;;5027032;28;20202;-73
2021/10/19 12:18:04;;;;;;;7.93;7.13;;;;;;;;;;5016565;28;20634;-70
2021/10/19 12:20:32;;;;;;;9.45;8.38;;;;;;;;;;5025318;28;20504;-69
2021/10/19 12:23:00;;;;;;;9.98;8.18;;;;;;;;;;5018538;28;20182;-69
2021/10/19 12:25:33;;;;;;;10.05;8.18;;;;;;;;;;5028419;28;20842;-68
2021/10/19 12:27:58;;;;;;;11.55;8.57;;;;;;;;;;5018879;28;20457;-69
2021/10/19 12:30:24;;;;;;;9.07;8.13;;;;;;;;;;5021151;28;20269;-69
2021/10/19 12:32:52;;;;;;;11.52;10.00;;;;;;;;;;5012692;28;20183;-69
2021/10/19 12:35:18;;;;;;;11.95;9.98;;;;;;;;;;5023988;28;20213;-69
2021/10/19 12:37:43;;;;;;;10.65;9.55;;;;;;;;;;5016974;28;20649;-69
2021/10/19 12:40:13;;;;;;;11.35;9.80;;;;;;;;;;5023246;28;20890;-70
2021/10/19 12:42:38;;;;;;;13.60;9.95;;;;;;;;;;5017083;28;21024;-69
2021/10/19 12:45:04;;;;;;;10.48;9.48;;;;;;;;;;5023273;28;20242;-70
2021/10/19 12:47:29;;;;;;;10.23;9.02;;;;;;;;;;5022189;28;20244;-71
2021/10/19 12:49:54;;;;;;;9.82;8.82;;;;;;;;;;5018112;28;20301;-71
2021/10/19 12:52:23;;;;;;;10.80;9.48;;;;;;;;;;5022751;28;20228;-69
2021/10/19 12:54:48;;;;;;;11.23;10.13;;;;;;;;;;5015373;28;20677;-70
2021/10/19 12:57:14;;;;;;;10.40;9.40;;;;;;;;;;5021842;28;20220;-69
2021/10/19 12:59:41;;;;;;;14.50;10.48;;;;;;;;;;5017452;28;20562;-69
2021/10/19 13:02:07;;;;;;;10.05;9.05;;;;;;;;;;5023199;28;20337;-70
2021/10/19 13:04:33;;;;;;;9.02;8.13;;;;;;;;;;5016144;28;20669;-70
2021/10/19 13:06:58;;;;;;;10.85;9.75;;;;;;;;;;5024431;28;20206;-69
2021/10/19 13:09:23;;;;;;;11.10;9.68;;;;;;;;;;5014670;28;20186;-71
2021/10/19 13:11:50;;;;;;;12.55;10.60;;;;;;;;;;5022725;28;20193;-70
2021/10/19 13:14:16;;;;;;;9.93;8.93;;;;;;;;;;5016824;28;20247;-70
2021/10/19 13:16:41;;;;;;;11.45;10.23;;;;;;;;;;5026403;28;20182;-69
2021/10/19 13:19:07;;;;;;;10.57;9.48;;;;;;;;;;5016462;28;20823;-70
2021/10/19 13:21:33;;;;;;;10.73;9.65;;;;;;;;;;5021955;28;20289;-70
2021/10/19 13:23:58;;;;;;;11.85;10.43;;;;;;;;;;5026780;28;20245;-70
2021/10/19 13:26:24;;;;;;;12.10;10.55;;;;;;;;;;5014592;28;20182;-70
2021/10/19 13:28:49;;;;;;;12.68;11.07;;;;;;;;;;5021662;28;20526;-70
2021/10/19 13:31:15;;;;;;;14.25;10.90;;;;;;;;;;5016379;28;20276;-69
2021/10/19 13:33:40;;;;;;;14.82;11.60;;;;;;;;;;5022965;28;20887;-69
2021/10/19 13:36:06;;;;;;;12.70;11.18;;;;;;;;;;4323433;28;10000822;-69
2021/10/19 13:38:32;;;;;;;13.27;11.82;;;;;;;;;;5016170;28;20803;-70
2021/10/19 13:40:59;;;;;;;15.93;12.07;;;;;;;;;;5011665;28;20953;-71
2021/10/19 13:43:25;;;;;;;13.20;11.02;;;;;;;;;;5016334;28;20198;-69
2021/10/19 13:45:51;;;;;;;14.13;11.38;;;;;;;;;;5012651;28;20570;-69
2021/10/19 13:48:17;;;;;;;13.82;11.68;;;;;;;;;;5020655;28;20553;-69
2021/10/19 13:50:43;;;;;;;14.43;11.25;;;;;;;;;;5019454;28;20288;-70
2021/10/19 13:53:08;;;;;;;12.90;11.45;;;;;;;;;;5011921;28;20427;-69
2021/10/19 13:55:34;;;;;;;11.90;10.57;;;;;;;;;;5021439;28;20643;-69
2021/10/19 13:58:00;;;;;;;11.32;10.15;;;;;;;;;;5010289;28;20205;-69
2021/10/19 14:00:26;;;;;;;12.75;9.88;;;;;;;;;;5016030;28;20243;-69
2021/10/19 14:02:52;;;;;;;10.90;9.80;;;;;;;;;;5010820;28;20182;-68
2021/10/19 14:05:17;;;;;;;12.48;10.23;;;;;;;;;;5017353;28;20206;-69
2021/10/19 14:07:43;;;;;;;13.10;10.40;;;;;;;;;;5012017;28;20279;-69
2021/10/19 14:10:09;;;;;;;11.65;9.45;;;;;;;;;;5018105;28;20276;-71
2021/10/19 14:12:35;;;;;;;10.45;9.38;;;;;;;;;;5011561;28;20630;-69
2021/10/19 14:15:00;;;;;;;12.45;10.50;;;;;;;;;;5015015;28;20182;-70
2021/10/19 14:17:28;;;;;;;12.20;10.35;;;;;;;;;;5010017;28;20217;-69
2021/10/19 14:19:54;;;;;;;15.70;11.35;;;;;;;;;;5017207;28;20606;-69